Terminal Aerodrome Forecast
Issued by NWS

Home | Current Version | Previous Version | Text Only | Print | Product List | Glossary On
Versions: 1 2 3 4 5 6 7 8 9 10 11 12 13 14 15 16
000
FTUS41 KILN 272300
TAFLCK
TAF
KLCK 272340Z 2800/2824 23006KT 4SM -RA BR OVC015
     FM280300 25006KT 4SM -RA BR OVC008
     FM280500 27006KT 2SM -RA BR OVC005
     FM280800 33008KT 4SM -RA BR OVC008
     FM281100 33008KT 5SM BR VCSH OVC008
     FM281400 34008KT P6SM OVC012
     FM281800 24008KT P6SM OVC022=

USA.gov is the U.S. government's official web portal to all federal, state and local government web resources and services.